Gener8 Ares — V7MK5 — position and weather

sailwx.info

Track history (hours):
 
Tides and Currents Weather Stations Pressure Air Temp Water Temp Dewpoint Dewpoint Depression Visibility Wind Speed Wind Dir Waves Ship Positions

Gener8 Ares

Last reported at 2017-Sep-16 00:05 UTC. Time now 2017-Sep-22 20:42 UTC.
Position N 30°37' W 118°39'.

Length 336 m; draft 12.5 m.

Type: Tanker. MMSI: 538006375.

Date/timePositionNaut miles runAvg speedWind from/ knotsBaromVisibWave heightAir tempDewpointWater temp
2017-Sep-16 00:05N 30°37' W 118°39'5714.7
2017-Sep-15 20:13N 31°28' W 119°08'2 8.9
2017-Sep-15 20:00N 31°30' W 119°09'1 1.8
2017-Sep-15 19:30N 31°30' W 119°10'1 1.6
2017-Sep-15 18:59N 31°30' W 119°11'1 1.6
2017-Sep-15 18:10N 31°30' W 119°12'0 2.3
2017-Sep-15 18:00N 31°31' W 119°13'2 2.2
2017-Sep-15 17:01N 31°31' W 119°15'0 1.7
2017-Sep-15 16:51N 31°32' W 119°15'1 1.5
2017-Sep-15 16:30N 31°32' W 119°16'2 2.0
2017-Sep-15 15:26N 31°34' W 119°17'1 2.1
2017-Sep-15 15:00N 31°34' W 119°18'1 2.0
2017-Sep-15 14:30N 31°35' W 119°19'1 2.2
2017-Sep-15 14:00N 31°36' W 119°20'1 2.1
2017-Sep-15 13:30N 31°36' W 119°21'1 1.7
2017-Sep-15 13:00N 31°37' W 119°22'1 2.4
2017-Sep-15 12:30N 31°38' W 119°23'1 1.5
2017-Sep-15 12:00N 31°38' W 119°23'1 2.0
2017-Sep-15 11:30N 31°39' W 119°24'1 1.6
2017-Sep-15 11:00N 31°40' W 119°24'1 2.2
2017-Sep-15 10:28N 31°41' W 119°25'1 1.8
2017-Sep-15 10:00N 31°41' W 119°26'1 2.0
2017-Sep-15 09:30N 31°42' W 119°27'1 1.9
2017-Sep-15 09:00N 31°43' W 119°27'1 1.6
2017-Sep-15 08:30N 31°44' W 119°28'1 1.8
2017-Sep-15 08:00N 31°44' W 119°28'1 1.7
2017-Sep-15 07:30N 31°45' W 119°29'1 1.8
2017-Sep-15 07:00N 31°46' W 119°30'1 1.6
2017-Sep-15 06:30N 31°46' W 119°30'1 1.9
2017-Sep-15 06:00N 31°47' W 119°31'1 1.4
2017-Sep-15 05:30N 31°48' W 119°32'1 1.8
2017-Sep-15 05:00N 31°48' W 119°32'1 2.0
2017-Sep-15 04:26N 31°49' W 119°33'1 1.2
2017-Sep-15 04:00N 31°49' W 119°34'1 2.2
2017-Sep-15 03:30N 31°50' W 119°34'1 1.6
2017-Sep-15 02:58N 31°51' W 119°35'1 1.6
2017-Sep-15 02:29N 31°52' W 119°35'1 2.1
2017-Sep-15 02:00N 31°53' W 119°36'1 1.6
2017-Sep-15 01:30N 31°53' W 119°37'1 1.5
2017-Sep-15 01:00N 31°54' W 119°37'1 1.5
2017-Sep-15 00:30N 31°55' W 119°37'1 1.9
2017-Sep-15 00:00N 31°55' W 119°38'1 1.6
2017-Sep-14 23:30N 31°56' W 119°38'1 2.0
2017-Sep-14 22:57N 31°57' W 119°39'1 1.4
2017-Sep-14 22:30N 31°58' W 119°39'1 1.4
2017-Sep-14 22:00N 31°58' W 119°40'1 1.6
2017-Sep-14 21:30N 31°59' W 119°40'1 1.7
2017-Sep-14 21:00N 31°59' W 119°41'1 1.5
2017-Sep-14 20:30N 31°60' W 119°42'1 1.4
2017-Sep-14 20:00N 32°01' W 119°42'1 1.4
2017-Sep-14 19:30N 32°01' W 119°43'1 1.5
2017-Sep-14 19:00N 32°01' W 119°44'1 1.8
2017-Sep-14 18:30N 32°02' W 119°44'1 1.8
2017-Sep-14 18:00N 32°03' W 119°45'1 1.6
2017-Sep-14 17:28N 32°03' W 119°46'1 1.3
2017-Sep-14 16:59N 32°04' W 119°47'1 1.9
2017-Sep-14 16:30N 32°04' W 119°47'1 1.7
2017-Sep-14 16:00N 32°05' W 119°48'1 1.4
2017-Sep-14 15:30N 32°05' W 119°49'1 2.5
2017-Sep-14 15:00N 32°06' W 119°50'6 5.0
2017-Sep-14 13:49N 32°11' W 119°54'2 5.1
2017-Sep-14 13:29N 32°12' W 119°55'2 3.1
2017-Sep-14 12:44N 32°14' W 119°57'45 7.5
2017-Sep-14 06:42N 32°05' W 119°05'1510.0
2017-Sep-14 05:11N 32°02' W 118°47'2410.4
2017-Sep-14 02:54N 31°57' W 118°20'4 8.8
2017-Sep-14 02:27N 31°56' W 118°15'2 4.8
2017-Sep-14 01:57N 31°56' W 118°13'0 1.0
2017-Sep-14 01:30N 31°56' W 118°13'1 1.4
2017-Sep-14 00:59N 31°55' W 118°14'1 1.6
2017-Sep-14 00:30N 31°55' W 118°14'1 1.5
2017-Sep-14 00:00N 31°54' W 118°15'1 1.6
2017-Sep-13 23:29N 31°54' W 118°16'0 0.9
2017-Sep-13 23:00N 31°53' W 118°16'1 1.1
2017-Sep-13 22:30N 31°53' W 118°17'1 1.4
2017-Sep-13 22:00N 31°53' W 118°17'1 1.6
2017-Sep-13 21:30N 31°53' W 118°18'1 2.4
2017-Sep-13 21:00N 31°53' W 118°20'1 1.6
2017-Sep-13 20:30N 31°54' W 118°21'1 1.6
2017-Sep-13 20:00N 31°54' W 118°22'1 1.5
2017-Sep-13 19:30N 31°54' W 118°23'1 1.4
2017-Sep-13 19:00N 31°54' W 118°23'1 1.6
2017-Sep-13 18:30N 31°54' W 118°24'1 1.8
2017-Sep-13 18:00N 31°54' W 118°25'1 1.7
2017-Sep-13 17:30N 31°54' W 118°26'1 1.5
2017-Sep-13 17:00N 31°54' W 118°27'1 1.4
2017-Sep-13 16:30N 31°54' W 118°28'1 1.5
2017-Sep-13 16:00N 31°54' W 118°29'1 1.5
2017-Sep-13 15:30N 31°55' W 118°30'1 1.4
2017-Sep-13 15:00N 31°55' W 118°30'1 1.3
2017-Sep-13 14:30N 31°55' W 118°31'1 1.3
2017-Sep-13 14:00N 31°55' W 118°32'1 1.5
2017-Sep-13 13:30N 31°56' W 118°33'1 1.2
2017-Sep-13 13:00N 31°56' W 118°33'1 1.7
2017-Sep-13 12:30N 31°56' W 118°34'1 1.4
2017-Sep-13 12:00N 31°57' W 118°35'1 1.4
2017-Sep-13 11:30N 31°57' W 118°36'1 1.2
2017-Sep-13 11:00N 31°57' W 118°36'1 2.0
2017-Sep-13 10:30N 31°58' W 118°37'1 1.4
2017-Sep-13 10:00N 31°58' W 118°38'1 1.0
2017-Sep-13 09:30N 31°58' W 118°39'1 1.6
2017-Sep-13 09:00N 31°59' W 118°39'1 1.4
2017-Sep-13 08:30N 31°59' W 118°40'1 1.4
2017-Sep-13 08:00N 31°60' W 118°40'1 1.3
2017-Sep-13 07:30N 32°00' W 118°41'1 1.4
2017-Sep-13 07:00N 32°01' W 118°42'1 1.4
2017-Sep-13 06:30N 32°01' W 118°42'1 1.3
2017-Sep-13 06:00N 32°02' W 118°43'1 1.3
2017-Sep-13 05:30N 32°02' W 118°43'1 1.3
2017-Sep-13 05:00N 32°03' W 118°43'1 1.5
2017-Sep-13 04:30N 32°04' W 118°44'1 1.6
2017-Sep-13 04:00N 32°04' W 118°44'1 1.4
2017-Sep-13 03:30N 32°05' W 118°44'1 1.4
2017-Sep-13 03:00N 32°06' W 118°44'2 3.4
2017-Sep-13 02:30N 32°07' W 118°46'3 5.2
2017-Sep-13 02:00N 32°09' W 118°48'3 5.4
2017-Sep-13 01:30N 32°11' W 118°50'3 5.3
2017-Sep-13 01:00N 32°13' W 118°52'2 3.6
2017-Sep-13 00:30N 32°14' W 118°53'1 1.5
2017-Sep-13 00:00N 32°15' W 118°54'0 0.7
2017-Sep-12 23:30N 32°15' W 118°55'1 1.1
2017-Sep-12 23:00N 32°15' W 118°55'2 3.3
2017-Sep-12 22:31N 32°16' W 118°56'710.1
2017-Sep-12 21:50N 32°20' W 118°50'412.4
2017-Sep-12 21:31N 32°22' W 118°46'612.2
2017-Sep-12 21:01N 32°25' W 118°39'612.3
2017-Sep-12 20:30N 32°28' W 118°33'612.1
2017-Sep-12 19:59N 32°32' W 118°27'612.5
2017-Sep-12 19:29N 32°35' W 118°20'613.5
2017-Sep-12 19:01N 32°38' W 118°14'713.6
2017-Sep-12 18:31N 32°42' W 118°07'713.9
2017-Sep-12 18:01N 32°49' W 118°06'714.0
2017-Sep-12 17:30N 32°56' W 118°06'612.5
2017-Sep-12 17:00N 33°02' W 118°06'611.1
2017-Sep-12 16:30N 33°07' W 118°06'611.2
2017-Sep-12 16:00N 33°13' W 118°06'611.1
2017-Sep-12 15:30N 33°19' W 118°06'511.0
2017-Sep-12 15:00N 33°24' W 118°08'611.4
2017-Sep-12 14:30N 33°29' W 118°11'611.6
2017-Sep-12 14:00N 33°35' W 118°13'510.3
2017-Sep-12 13:30N 33°40' W 118°11'3 6.5
2017-Sep-12 13:00N 33°43' W 118°11'2 3.1
2017-Sep-12 12:30N 33°44' W 118°12'0 0.1
2017-Sep-12 11:59N 33°44' W 118°12'0 0.0
2017-Sep-12 11:29N 33°44' W 118°12'0 0.0
2017-Sep-12 10:59N 33°44' W 118°12'0 0.0
2017-Sep-12 10:29N 33°44' W 118°12'0 0.0
2017-Sep-12 09:59N 33°44' W 118°12'0 0.0
2017-Sep-12 09:29N 33°44' W 118°12'0 0.0
2017-Sep-12 08:59N 33°44' W 118°12'0 0.1
2017-Sep-12 08:29N 33°44' W 118°12'0 0.0
2017-Sep-12 07:59N 33°44' W 118°12'0 0.1
2017-Sep-12 07:29N 33°44' W 118°12'0 0.1
2017-Sep-12 06:59N 33°44' W 118°12'0 0.0
2017-Sep-12 06:29N 33°44' W 118°12'0 0.0
2017-Sep-12 05:59N 33°44' W 118°12'0 0.1
2017-Sep-12 05:29N 33°44' W 118°12'0 0.0
2017-Sep-12 04:59N 33°44' W 118°12'0 0.0
2017-Sep-12 04:29N 33°44' W 118°12'0 0.0
2017-Sep-12 03:59N 33°44' W 118°12'0 0.0
2017-Sep-12 03:26N 33°44' W 118°12'0 0.0
2017-Sep-12 02:59N 33°44' W 118°12'0 0.0
2017-Sep-12 02:29N 33°44' W 118°12'0 0.0
2017-Sep-12 01:59N 33°44' W 118°12'0 0.0
2017-Sep-12 01:29N 33°44' W 118°12'0 0.0
2017-Sep-12 00:59N 33°44' W 118°12'0 0.0
2017-Sep-12 00:29N 33°44' W 118°12'0 0.0
2017-Sep-11 23:59N 33°44' W 118°12'0 0.0
2017-Sep-11 23:29N 33°44' W 118°12'0 0.0
2017-Sep-11 22:59N 33°44' W 118°12'0 0.0
2017-Sep-11 22:29N 33°44' W 118°12'0 0.0
2017-Sep-11 21:59N 33°44' W 118°12'0 0.0
2017-Sep-11 21:29N 33°44' W 118°12'0 0.0
2017-Sep-11 20:59N 33°44' W 118°12'0 0.1
2017-Sep-11 20:29N 33°44' W 118°12'0 0.0
2017-Sep-11 19:59N 33°44' W 118°12'0 0.1
2017-Sep-11 19:29N 33°44' W 118°12'0 0.1
2017-Sep-11 18:59N 33°44' W 118°12'0 0.1
2017-Sep-11 18:29N 33°44' W 118°12'0 0.1
2017-Sep-11 17:59N 33°44' W 118°12'0 0.0
2017-Sep-11 17:30N 33°44' W 118°12'1 2.7
2017-Sep-11 17:00N 33°45' W 118°13'0 0.8
2017-Sep-11 16:30N 33°45' W 118°13'0 0.0
2017-Sep-10 21:29N 33°45' W 118°13'0 0.0
2017-Sep-10 21:00N 33°45' W 118°13'0 0.1
2017-Sep-10 20:30N 33°45' W 118°13'1 1.2
2017-Sep-10 20:00N 33°45' W 118°13'2 3.2
2017-Sep-10 19:30N 33°44' W 118°12'3 5.4
2017-Sep-10 19:00N 33°41' W 118°11'3 6.7
2017-Sep-10 18:30N 33°38' W 118°11'3 6.5
2017-Sep-10 18:00N 33°40' W 118°08'1 1.2
2017-Sep-10 17:30N 33°40' W 118°08'0 0.0
2017-Sep-10 17:00N 33°40' W 118°08'0 0.1
2017-Sep-10 16:30N 33°40' W 118°08'0 0.0
2017-Sep-10 16:00N 33°40' W 118°08'0 0.0
2017-Sep-10 15:27N 33°40' W 118°08'0 0.0
2017-Sep-10 15:00N 33°40' W 118°08'0 0.1
2017-Sep-10 14:00N 33°40' W 118°08'0 0.1
2017-Sep-10 13:30N 33°40' W 118°08'0 0.0
2017-Sep-10 13:00N 33°40' W 118°08'0 0.1
2017-Sep-10 12:30N 33°40' W 118°08'0 0.1
2017-Sep-10 12:00N 33°40' W 118°08'0 0.0
2017-Sep-10 11:30N 33°40' W 118°08'0 0.1
2017-Sep-10 11:00N 33°40' W 118°08'0 0.1
2017-Sep-10 10:30N 33°40' W 118°08'0 0.0
2017-Sep-10 10:00N 33°40' W 118°08'0 0.0
2017-Sep-10 09:30N 33°40' W 118°08'0 0.0
2017-Sep-10 09:00N 33°40' W 118°08'0 0.1
2017-Sep-10 08:30N 33°40' W 118°08'0 0.0
2017-Sep-10 08:00N 33°40' W 118°08'0 0.2
2017-Sep-10 07:30N 33°40' W 118°08'0 0.0
2017-Sep-10 07:00N 33°40' W 118°08'0 0.1
2017-Sep-10 06:18N 33°40' W 118°08'0 0.0
2017-Sep-10 06:00N 33°40' W 118°08'0 0.0
2017-Sep-10 05:30N 33°40' W 118°08'0 0.1
2017-Sep-10 04:57N 33°40' W 118°08'0 0.0
2017-Sep-10 04:30N 33°40' W 118°08'0 0.0
2017-Sep-10 04:00N 33°40' W 118°08'0 0.1
2017-Sep-10 03:30N 33°40' W 118°08'0 0.0
2017-Sep-10 03:00N 33°40' W 118°08'0 0.0
2017-Sep-10 02:30N 33°40' W 118°08'0 0.0
2017-Sep-10 02:00N 33°40' W 118°08'0 0.0
2017-Sep-10 01:30N 33°40' W 118°08'0 0.0
2017-Sep-10 01:00N 33°40' W 118°08'0 0.0
2017-Sep-10 00:30N 33°40' W 118°08'0 0.0
2017-Sep-10 00:00N 33°40' W 118°08'0 0.0
2017-Sep-09 23:30N 33°40' W 118°08'0 0.0
2017-Sep-09 23:00N 33°40' W 118°08'0 0.0
2017-Sep-09 22:30N 33°40' W 118°08'0 0.0
2017-Sep-09 22:00N 33°40' W 118°08'0 0.0
2017-Sep-09 21:30N 33°40' W 118°08'0 0.1
2017-Sep-09 20:57N 33°40' W 118°08'0 0.1
2017-Sep-09 20:30N 33°40' W 118°08'0 0.1
2017-Sep-09 20:00N 33°40' W 118°08'0 0.0
2017-Sep-09 19:30N 33°40' W 118°08'0 0.0
2017-Sep-09 19:00N 33°40' W 118°08'0 0.0
2017-Sep-09 18:27N 33°40' W 118°08'0 0.1
2017-Sep-09 18:00N 33°40' W 118°08'0 0.1
2017-Sep-09 17:30N 33°40' W 118°08'0 0.0
2017-Sep-09 17:00N 33°40' W 118°08'0 0.0
2017-Sep-09 16:30N 33°40' W 118°08'0 0.0
2017-Sep-09 16:00N 33°40' W 118°08'0 0.0
2017-Sep-09 15:30N 33°40' W 118°08'0 0.0
2017-Sep-09 15:00N 33°40' W 118°08'0 0.0
2017-Sep-09 14:30N 33°40' W 118°08'0 0.0
2017-Sep-09 13:57N 33°40' W 118°08'0 0.0
2017-Sep-09 13:15N 33°40' W 118°08'0 0.1
2017-Sep-09 12:57N 33°40' W 118°08'0 0.1
2017-Sep-09 12:27N 33°40' W 118°08'0 0.0
2017-Sep-09 11:45N 33°40' W 118°08'0 0.0
2017-Sep-09 11:30N 33°40' W 118°08'0 0.0
2017-Sep-09 11:00N 33°40' W 118°08'0 0.0
2017-Sep-09 10:30N 33°40' W 118°08'0 0.0
2017-Sep-09 10:00N 33°40' W 118°08'0 0.0
2017-Sep-09 09:30N 33°40' W 118°08'0 0.1
2017-Sep-09 09:00N 33°40' W 118°08'0 0.1
2017-Sep-09 08:27N 33°40' W 118°08'0 0.0
2017-Sep-09 07:57N 33°40' W 118°08'0 0.0
2017-Sep-09 07:27N 33°40' W 118°08'0 0.0
2017-Sep-09 07:00N 33°40' W 118°08'0 0.0
2017-Sep-09 06:30N 33°40' W 118°08'0 0.0
2017-Sep-09 06:00N 33°40' W 118°08'0 0.0
2017-Sep-09 05:30N 33°40' W 118°08'0 0.0
2017-Sep-09 05:00N 33°40' W 118°08'0 0.0
2017-Sep-09 04:30N 33°40' W 118°08'0 0.0
2017-Sep-09 04:00N 33°40' W 118°08'0 0.0
2017-Sep-09 03:30N 33°40' W 118°08'0 0.0
2017-Sep-09 03:00N 33°40' W 118°08'0 0.0
2017-Sep-09 02:30N 33°40' W 118°08'0 0.0
2017-Sep-09 02:00N 33°40' W 118°08'0 0.0
2017-Sep-09 01:30N 33°40' W 118°08'0 0.0
2017-Sep-09 01:00N 33°40' W 118°08'0 0.1
2017-Sep-09 00:30N 33°40' W 118°08'0 0.0
2017-Sep-09 00:00N 33°40' W 118°08'0 0.0
2017-Sep-08 23:30N 33°40' W 118°08'0 0.0
2017-Sep-08 23:00N 33°40' W 118°08'0 0.0
2017-Sep-08 22:30N 33°40' W 118°08'0 0.0
2017-Sep-08 22:00N 33°40' W 118°08'0 0.1
2017-Sep-08 21:30N 33°40' W 118°08'0 0.1
2017-Sep-08 21:00N 33°40' W 118°08'0 0.0
2017-Sep-08 20:30N 33°40' W 118°08'0 0.0
2017-Sep-08 20:00N 33°40' W 118°08'0 0.0
2017-Sep-08 19:30N 33°40' W 118°08'0 0.0
2017-Sep-08 19:00N 33°40' W 118°08'0 0.0
2017-Sep-08 18:30N 33°40' W 118°08'0 0.0
2017-Sep-08 18:00N 33°40' W 118°08'0 0.0
2017-Sep-08 17:30N 33°40' W 118°08'0 0.0
2017-Sep-08 16:57N 33°40' W 118°08'0 0.0
2017-Sep-08 16:27N 33°40' W 118°08'0 0.0
2017-Sep-08 16:00N 33°40' W 118°08'0 0.0
2017-Sep-08 15:30N 33°40' W 118°08'0 0.1
2017-Sep-08 15:00N 33°40' W 118°08'0 0.0
2017-Sep-08 14:30N 33°40' W 118°08'0 0.1
2017-Sep-08 14:00N 33°40' W 118°08'0 0.0
2017-Sep-08 13:30N 33°40' W 118°08'0 0.0
2017-Sep-08 12:54N 33°40' W 118°08'0 0.1
2017-Sep-08 12:30N 33°40' W 118°08'0 0.0
2017-Sep-08 12:00N 33°40' W 118°08'0 0.0
2017-Sep-08 11:30N 33°40' W 118°08'0 0.0
2017-Sep-08 11:00N 33°40' W 118°08'0 0.0
2017-Sep-08 10:30N 33°40' W 118°08'0 0.0
2017-Sep-08 10:00N 33°40' W 118°08'0 0.0
2017-Sep-08 09:30N 33°40' W 118°08'0 0.0
2017-Sep-08 09:00N 33°40' W 118°08'0 0.0
2017-Sep-08 08:30N 33°40' W 118°08'0 0.0
2017-Sep-08 08:00N 33°40' W 118°08'0 0.0
2017-Sep-08 07:30N 33°40' W 118°08'0 0.0
2017-Sep-08 06:54N 33°40' W 118°08'0 0.0
2017-Sep-08 06:30N 33°40' W 118°08'0 0.0
2017-Sep-08 06:00N 33°40' W 118°08'0 0.0
2017-Sep-08 05:30N 33°40' W 118°08'0 0.0
2017-Sep-08 05:00N 33°40' W 118°08'0 0.0
2017-Sep-08 04:30N 33°40' W 118°08'0 0.0
2017-Sep-08 04:00N 33°40' W 118°08'0 0.0
2017-Sep-08 03:30N 33°40' W 118°08'0 0.0
2017-Sep-08 03:00N 33°40' W 118°08'0 0.0
2017-Sep-08 02:30N 33°40' W 118°08'0 0.0
2017-Sep-08 02:00N 33°40' W 118°08'0 0.0
2017-Sep-08 01:30N 33°40' W 118°08'0 0.0
2017-Sep-08 01:00N 33°40' W 118°08'0 0.0
2017-Sep-08 00:30N 33°40' W 118°08'0 0.0
2017-Sep-08 00:00N 33°40' W 118°08'0 0.0
2017-Sep-07 23:30N 33°40' W 118°08'0 0.0
2017-Sep-07 23:00N 33°40' W 118°08'0 0.0
2017-Sep-07 22:30N 33°40' W 118°08'0 0.0
2017-Sep-07 22:00N 33°40' W 118°08'0 0.0
2017-Sep-07 21:30N 33°40' W 118°08'0 0.0
2017-Sep-07 21:00N 33°40' W 118°08'0 0.0
2017-Sep-07 20:30N 33°40' W 118°08'0 0.0
2017-Sep-07 20:00N 33°40' W 118°08'0 0.0
2017-Sep-07 19:30N 33°40' W 118°08'0 0.0
2017-Sep-07 19:00N 33°40' W 118°08'0 0.1
2017-Sep-07 18:30N 33°40' W 118°08'0 0.0
2017-Sep-07 18:00N 33°40' W 118°08'0 0.1
2017-Sep-07 17:27N 33°40' W 118°08'0 0.1
2017-Sep-07 17:00N 33°40' W 118°08'0 0.0
2017-Sep-07 16:30N 33°40' W 118°08'0 0.0
2017-Sep-07 15:54N 33°40' W 118°08'0 0.2
2017-Sep-07 15:30N 33°40' W 118°08'0 0.3
2017-Sep-07 15:00N 33°40' W 118°08'2 3.6
2017-Sep-07 14:30N 33°39' W 118°09'4 7.5
2017-Sep-07 14:00N 33°36' W 118°13'611.1
2017-Sep-07 13:30N 33°36' W 118°20'611.6
2017-Sep-07 13:00N 33°36' W 118°26'611.8
2017-Sep-07 12:30N 33°36' W 118°34'611.4
2017-Sep-07 12:01N 33°36' W 118°40'611.4
2017-Sep-07 11:30N 33°37' W 118°47'611.6
2017-Sep-07 11:00N 33°37' W 118°54'611.9
2017-Sep-07 10:30N 33°38' W 119°01'611.8
2017-Sep-07 10:00N 33°39' W 119°08'611.6
2017-Sep-07 09:30N 33°41' W 119°14'612.4
2017-Sep-07 09:01N 33°45' W 119°20'612.1
2017-Sep-07 08:30N 33°48' W 119°27'611.4
2017-Sep-07 08:00N 33°49' W 119°33'611.9
2017-Sep-07 07:30N 33°48' W 119°40'611.5
2017-Sep-07 07:00N 33°47' W 119°47'611.5
2017-Sep-07 06:30N 33°46' W 119°54'611.3
2017-Sep-07 06:00N 33°45' W 120°01'611.4
2017-Sep-07 05:30N 33°44' W 120°08'612.2
2017-Sep-07 05:00N 33°45' W 120°15'612.3
2017-Sep-07 04:30N 33°46' W 120°22'612.2
2017-Sep-07 04:00N 33°47' W 120°29'612.6
2017-Sep-07 03:30N 33°48' W 120°37'612.7
2017-Sep-07 03:00N 33°49' W 120°44'712.6
2017-Sep-07 02:26N 33°50' W 120°53'612.7
2017-Sep-07 01:59N 33°51' W 120°60'612.5
2017-Sep-07 01:30N 33°52' W 121°07'612.3
2017-Sep-07 01:00N 33°53' W 121°14'610.5
2017-Sep-07 00:28N 33°54' W 121°21'2 4.6
2017-Sep-07 00:00N 33°55' W 121°23'3 5.3
2017-Sep-06 23:30N 33°55' W 121°26'510.2
2017-Sep-06 22:59N 33°56' W 121°33'611.9
2017-Sep-06 22:29N 33°57' W 121°40'611.9
2017-Sep-06 21:59N 33°58' W 121°47'612.0
2017-Sep-06 21:30N 33°59' W 121°54'611.8
2017-Sep-06 21:00N 33°60' W 122°01'612.4
2017-Sep-06 20:30N 34°01' W 122°08'2512.9
2017-Sep-06 18:36N 34°05' W 122°38'513.0
2017-Sep-06 18:12N 34°05' W 122°44'212.8
2017-Sep-06 18:00N 34°06' W 122°47'713.2
2017-Sep-06 17:29N 34°07' W 122°55'613.1
2017-Sep-06 17:00N 34°08' W 123°02'1512.9
2017-Sep-06 15:51N 34°11' W 123°20'412.7
2017-Sep-06 15:30N 34°11' W 123°25'612.7
2017-Sep-06 15:00N 34°12' W 123°33'4012.6
2017-Sep-06 11:47N 34°19' W 124°21'2012.4
2017-Sep-06 10:11N 34°22' W 124°45'  
Track history (hours):
 
Tides and Currents Weather Stations Pressure Air Temp Water Temp Dewpoint Dewpoint Depression Visibility Wind Speed Wind Dir Waves Ship Positions

Gener8 Ares

Last reported at 2017-Sep-16 00:05 UTC. Time now 2017-Sep-22 20:42 UTC.
Position N 30°37' W 118°39'.

Length 336 m; draft 12.5 m.

Type: Tanker. MMSI: 538006375.

Date/timePositionNaut miles runAvg speedWind from/ knotsBaromVisibWave heightAir tempDewpointWater temp
2017-Sep-16 00:05N 30°37' W 118°39'5714.7
2017-Sep-15 20:13N 31°28' W 119°08'2 8.9
2017-Sep-15 20:00N 31°30' W 119°09'1 1.8
2017-Sep-15 19:30N 31°30' W 119°10'1 1.6
2017-Sep-15 18:59N 31°30' W 119°11'1 1.6
2017-Sep-15 18:10N 31°30' W 119°12'0 2.3
2017-Sep-15 18:00N 31°31' W 119°13'2 2.2
2017-Sep-15 17:01N 31°31' W 119°15'0 1.7
2017-Sep-15 16:51N 31°32' W 119°15'1 1.5
2017-Sep-15 16:30N 31°32' W 119°16'2 2.0
2017-Sep-15 15:26N 31°34' W 119°17'1 2.1
2017-Sep-15 15:00N 31°34' W 119°18'1 2.0
2017-Sep-15 14:30N 31°35' W 119°19'1 2.2
2017-Sep-15 14:00N 31°36' W 119°20'1 2.1
2017-Sep-15 13:30N 31°36' W 119°21'1 1.7
2017-Sep-15 13:00N 31°37' W 119°22'1 2.4
2017-Sep-15 12:30N 31°38' W 119°23'1 1.5
2017-Sep-15 12:00N 31°38' W 119°23'1 2.0
2017-Sep-15 11:30N 31°39' W 119°24'1 1.6
2017-Sep-15 11:00N 31°40' W 119°24'1 2.2
2017-Sep-15 10:28N 31°41' W 119°25'1 1.8
2017-Sep-15 10:00N 31°41' W 119°26'1 2.0
2017-Sep-15 09:30N 31°42' W 119°27'1 1.9
2017-Sep-15 09:00N 31°43' W 119°27'1 1.6
2017-Sep-15 08:30N 31°44' W 119°28'1 1.8
2017-Sep-15 08:00N 31°44' W 119°28'1 1.7
2017-Sep-15 07:30N 31°45' W 119°29'1 1.8
2017-Sep-15 07:00N 31°46' W 119°30'1 1.6
2017-Sep-15 06:30N 31°46' W 119°30'1 1.9
2017-Sep-15 06:00N 31°47' W 119°31'1 1.4
2017-Sep-15 05:30N 31°48' W 119°32'1 1.8
2017-Sep-15 05:00N 31°48' W 119°32'1 2.0
2017-Sep-15 04:26N 31°49' W 119°33'1 1.2
2017-Sep-15 04:00N 31°49' W 119°34'1 2.2
2017-Sep-15 03:30N 31°50' W 119°34'1 1.6
2017-Sep-15 02:58N 31°51' W 119°35'1 1.6
2017-Sep-15 02:29N 31°52' W 119°35'1 2.1
2017-Sep-15 02:00N 31°53' W 119°36'1 1.6
2017-Sep-15 01:30N 31°53' W 119°37'1 1.5
2017-Sep-15 01:00N 31°54' W 119°37'1 1.5
2017-Sep-15 00:30N 31°55' W 119°37'1 1.9
2017-Sep-15 00:00N 31°55' W 119°38'1 1.6
2017-Sep-14 23:30N 31°56' W 119°38'1 2.0
2017-Sep-14 22:57N 31°57' W 119°39'1 1.4
2017-Sep-14 22:30N 31°58' W 119°39'1 1.4
2017-Sep-14 22:00N 31°58' W 119°40'1 1.6
2017-Sep-14 21:30N 31°59' W 119°40'1 1.7
2017-Sep-14 21:00N 31°59' W 119°41'1 1.5
2017-Sep-14 20:30N 31°60' W 119°42'1 1.4
2017-Sep-14 20:00N 32°01' W 119°42'1 1.4
2017-Sep-14 19:30N 32°01' W 119°43'1 1.5
2017-Sep-14 19:00N 32°01' W 119°44'1 1.8
2017-Sep-14 18:30N 32°02' W 119°44'1 1.8
2017-Sep-14 18:00N 32°03' W 119°45'1 1.6
2017-Sep-14 17:28N 32°03' W 119°46'1 1.3
2017-Sep-14 16:59N 32°04' W 119°47'1 1.9
2017-Sep-14 16:30N 32°04' W 119°47'1 1.7
2017-Sep-14 16:00N 32°05' W 119°48'1 1.4
2017-Sep-14 15:30N 32°05' W 119°49'1 2.5
2017-Sep-14 15:00N 32°06' W 119°50'6 5.0
2017-Sep-14 13:49N 32°11' W 119°54'2 5.1
2017-Sep-14 13:29N 32°12' W 119°55'2 3.1
2017-Sep-14 12:44N 32°14' W 119°57'45 7.5
2017-Sep-14 06:42N 32°05' W 119°05'1510.0
2017-Sep-14 05:11N 32°02' W 118°47'2410.4
2017-Sep-14 02:54N 31°57' W 118°20'4 8.8
2017-Sep-14 02:27N 31°56' W 118°15'2 4.8
2017-Sep-14 01:57N 31°56' W 118°13'0 1.0
2017-Sep-14 01:30N 31°56' W 118°13'1 1.4
2017-Sep-14 00:59N 31°55' W 118°14'1 1.6
2017-Sep-14 00:30N 31°55' W 118°14'1 1.5
2017-Sep-14 00:00N 31°54' W 118°15'1 1.6
2017-Sep-13 23:29N 31°54' W 118°16'0 0.9
2017-Sep-13 23:00N 31°53' W 118°16'1 1.1
2017-Sep-13 22:30N 31°53' W 118°17'1 1.4
2017-Sep-13 22:00N 31°53' W 118°17'1 1.6
2017-Sep-13 21:30N 31°53' W 118°18'1 2.4
2017-Sep-13 21:00N 31°53' W 118°20'1 1.6
2017-Sep-13 20:30N 31°54' W 118°21'1 1.6
2017-Sep-13 20:00N 31°54' W 118°22'1 1.5
2017-Sep-13 19:30N 31°54' W 118°23'1 1.4
2017-Sep-13 19:00N 31°54' W 118°23'1 1.6
2017-Sep-13 18:30N 31°54' W 118°24'1 1.8
2017-Sep-13 18:00N 31°54' W 118°25'1 1.7
2017-Sep-13 17:30N 31°54' W 118°26'1 1.5
2017-Sep-13 17:00N 31°54' W 118°27'1 1.4
2017-Sep-13 16:30N 31°54' W 118°28'1 1.5
2017-Sep-13 16:00N 31°54' W 118°29'1 1.5
2017-Sep-13 15:30N 31°55' W 118°30'1 1.4
2017-Sep-13 15:00N 31°55' W 118°30'1 1.3
2017-Sep-13 14:30N 31°55' W 118°31'1 1.3
2017-Sep-13 14:00N 31°55' W 118°32'1 1.5
2017-Sep-13 13:30N 31°56' W 118°33'1 1.2
2017-Sep-13 13:00N 31°56' W 118°33'1 1.7
2017-Sep-13 12:30N 31°56' W 118°34'1 1.4
2017-Sep-13 12:00N 31°57' W 118°35'1 1.4
2017-Sep-13 11:30N 31°57' W 118°36'1 1.2
2017-Sep-13 11:00N 31°57' W 118°36'1 2.0
2017-Sep-13 10:30N 31°58' W 118°37'1 1.4
2017-Sep-13 10:00N 31°58' W 118°38'1 1.0
2017-Sep-13 09:30N 31°58' W 118°39'1 1.6
2017-Sep-13 09:00N 31°59' W 118°39'1 1.4
2017-Sep-13 08:30N 31°59' W 118°40'1 1.4
2017-Sep-13 08:00N 31°60' W 118°40'1 1.3
2017-Sep-13 07:30N 32°00' W 118°41'1 1.4
2017-Sep-13 07:00N 32°01' W 118°42'1 1.4
2017-Sep-13 06:30N 32°01' W 118°42'1 1.3
2017-Sep-13 06:00N 32°02' W 118°43'1 1.3
2017-Sep-13 05:30N 32°02' W 118°43'1 1.3
2017-Sep-13 05:00N 32°03' W 118°43'1 1.5
2017-Sep-13 04:30N 32°04' W 118°44'1 1.6
2017-Sep-13 04:00N 32°04' W 118°44'1 1.4
2017-Sep-13 03:30N 32°05' W 118°44'1 1.4
2017-Sep-13 03:00N 32°06' W 118°44'2 3.4
2017-Sep-13 02:30N 32°07' W 118°46'3 5.2
2017-Sep-13 02:00N 32°09' W 118°48'3 5.4
2017-Sep-13 01:30N 32°11' W 118°50'3 5.3
2017-Sep-13 01:00N 32°13' W 118°52'2 3.6
2017-Sep-13 00:30N 32°14' W 118°53'1 1.5
2017-Sep-13 00:00N 32°15' W 118°54'0 0.7
2017-Sep-12 23:30N 32°15' W 118°55'1 1.1
2017-Sep-12 23:00N 32°15' W 118°55'2 3.3
2017-Sep-12 22:31N 32°16' W 118°56'710.1
2017-Sep-12 21:50N 32°20' W 118°50'412.4
2017-Sep-12 21:31N 32°22' W 118°46'612.2
2017-Sep-12 21:01N 32°25' W 118°39'612.3
2017-Sep-12 20:30N 32°28' W 118°33'612.1
2017-Sep-12 19:59N 32°32' W 118°27'612.5
2017-Sep-12 19:29N 32°35' W 118°20'613.5
2017-Sep-12 19:01N 32°38' W 118°14'713.6
2017-Sep-12 18:31N 32°42' W 118°07'713.9
2017-Sep-12 18:01N 32°49' W 118°06'714.0
2017-Sep-12 17:30N 32°56' W 118°06'612.5
2017-Sep-12 17:00N 33°02' W 118°06'611.1
2017-Sep-12 16:30N 33°07' W 118°06'611.2
2017-Sep-12 16:00N 33°13' W 118°06'611.1
2017-Sep-12 15:30N 33°19' W 118°06'511.0
2017-Sep-12 15:00N 33°24' W 118°08'611.4
2017-Sep-12 14:30N 33°29' W 118°11'611.6
2017-Sep-12 14:00N 33°35' W 118°13'510.3
2017-Sep-12 13:30N 33°40' W 118°11'3 6.5
2017-Sep-12 13:00N 33°43' W 118°11'2 3.1
2017-Sep-12 12:30N 33°44' W 118°12'0 0.1
2017-Sep-12 11:59N 33°44' W 118°12'0 0.0
2017-Sep-12 11:29N 33°44' W 118°12'0 0.0
2017-Sep-12 10:59N 33°44' W 118°12'0 0.0
2017-Sep-12 10:29N 33°44' W 118°12'0 0.0
2017-Sep-12 09:59N 33°44' W 118°12'0 0.0
2017-Sep-12 09:29N 33°44' W 118°12'0 0.0
2017-Sep-12 08:59N 33°44' W 118°12'0 0.1
2017-Sep-12 08:29N 33°44' W 118°12'0 0.0
2017-Sep-12 07:59N 33°44' W 118°12'0 0.1
2017-Sep-12 07:29N 33°44' W 118°12'0 0.1
2017-Sep-12 06:59N 33°44' W 118°12'0 0.0
2017-Sep-12 06:29N 33°44' W 118°12'0 0.0
2017-Sep-12 05:59N 33°44' W 118°12'0 0.1
2017-Sep-12 05:29N 33°44' W 118°12'0 0.0
2017-Sep-12 04:59N 33°44' W 118°12'0 0.0
2017-Sep-12 04:29N 33°44' W 118°12'0 0.0
2017-Sep-12 03:59N 33°44' W 118°12'0 0.0
2017-Sep-12 03:26N 33°44' W 118°12'0 0.0
2017-Sep-12 02:59N 33°44' W 118°12'0 0.0
2017-Sep-12 02:29N 33°44' W 118°12'0 0.0
2017-Sep-12 01:59N 33°44' W 118°12'0 0.0
2017-Sep-12 01:29N 33°44' W 118°12'0 0.0
2017-Sep-12 00:59N 33°44' W 118°12'0 0.0
2017-Sep-12 00:29N 33°44' W 118°12'0 0.0
2017-Sep-11 23:59N 33°44' W 118°12'0 0.0
2017-Sep-11 23:29N 33°44' W 118°12'0 0.0
2017-Sep-11 22:59N 33°44' W 118°12'0 0.0
2017-Sep-11 22:29N 33°44' W 118°12'0 0.0
2017-Sep-11 21:59N 33°44' W 118°12'0 0.0
2017-Sep-11 21:29N 33°44' W 118°12'0 0.0
2017-Sep-11 20:59N 33°44' W 118°12'0 0.1
2017-Sep-11 20:29N 33°44' W 118°12'0 0.0
2017-Sep-11 19:59N 33°44' W 118°12'0 0.1
2017-Sep-11 19:29N 33°44' W 118°12'0 0.1
2017-Sep-11 18:59N 33°44' W 118°12'0 0.1
2017-Sep-11 18:29N 33°44' W 118°12'0 0.1
2017-Sep-11 17:59N 33°44' W 118°12'0 0.0
2017-Sep-11 17:30N 33°44' W 118°12'1 2.7
2017-Sep-11 17:00N 33°45' W 118°13'0 0.8
2017-Sep-11 16:30N 33°45' W 118°13'0 0.0
2017-Sep-10 21:29N 33°45' W 118°13'0 0.0
2017-Sep-10 21:00N 33°45' W 118°13'0 0.1
2017-Sep-10 20:30N 33°45' W 118°13'1 1.2
2017-Sep-10 20:00N 33°45' W 118°13'2 3.2
2017-Sep-10 19:30N 33°44' W 118°12'3 5.4
2017-Sep-10 19:00N 33°41' W 118°11'3 6.7
2017-Sep-10 18:30N 33°38' W 118°11'3 6.5
2017-Sep-10 18:00N 33°40' W 118°08'1 1.2
2017-Sep-10 17:30N 33°40' W 118°08'0 0.0
2017-Sep-10 17:00N 33°40' W 118°08'0 0.1
2017-Sep-10 16:30N 33°40' W 118°08'0 0.0
2017-Sep-10 16:00N 33°40' W 118°08'0 0.0
2017-Sep-10 15:27N 33°40' W 118°08'0 0.0
2017-Sep-10 15:00N 33°40' W 118°08'0 0.1
2017-Sep-10 14:00N 33°40' W 118°08'0 0.1
2017-Sep-10 13:30N 33°40' W 118°08'0 0.0
2017-Sep-10 13:00N 33°40' W 118°08'0 0.1
2017-Sep-10 12:30N 33°40' W 118°08'0 0.1
2017-Sep-10 12:00N 33°40' W 118°08'0 0.0
2017-Sep-10 11:30N 33°40' W 118°08'0 0.1
2017-Sep-10 11:00N 33°40' W 118°08'0 0.1
2017-Sep-10 10:30N 33°40' W 118°08'0 0.0
2017-Sep-10 10:00N 33°40' W 118°08'0 0.0
2017-Sep-10 09:30N 33°40' W 118°08'0 0.0
2017-Sep-10 09:00N 33°40' W 118°08'0 0.1
2017-Sep-10 08:30N 33°40' W 118°08'0 0.0
2017-Sep-10 08:00N 33°40' W 118°08'0 0.2
2017-Sep-10 07:30N 33°40' W 118°08'0 0.0
2017-Sep-10 07:00N 33°40' W 118°08'0 0.1
2017-Sep-10 06:18N 33°40' W 118°08'0 0.0
2017-Sep-10 06:00N 33°40' W 118°08'0 0.0
2017-Sep-10 05:30N 33°40' W 118°08'0 0.1
2017-Sep-10 04:57N 33°40' W 118°08'0 0.0
2017-Sep-10 04:30N 33°40' W 118°08'0 0.0
2017-Sep-10 04:00N 33°40' W 118°08'0 0.1
2017-Sep-10 03:30N 33°40' W 118°08'0 0.0
2017-Sep-10 03:00N 33°40' W 118°08'0 0.0
2017-Sep-10 02:30N 33°40' W 118°08'0 0.0
2017-Sep-10 02:00N 33°40' W 118°08'0 0.0
2017-Sep-10 01:30N 33°40' W 118°08'0 0.0
2017-Sep-10 01:00N 33°40' W 118°08'0 0.0
2017-Sep-10 00:30N 33°40' W 118°08'0 0.0
2017-Sep-10 00:00N 33°40' W 118°08'0 0.0
2017-Sep-09 23:30N 33°40' W 118°08'0 0.0
2017-Sep-09 23:00N 33°40' W 118°08'0 0.0
2017-Sep-09 22:30N 33°40' W 118°08'0 0.0
2017-Sep-09 22:00N 33°40' W 118°08'0 0.0
2017-Sep-09 21:30N 33°40' W 118°08'0 0.1
2017-Sep-09 20:57N 33°40' W 118°08'0 0.1
2017-Sep-09 20:30N 33°40' W 118°08'0 0.1
2017-Sep-09 20:00N 33°40' W 118°08'0 0.0
2017-Sep-09 19:30N 33°40' W 118°08'0 0.0
2017-Sep-09 19:00N 33°40' W 118°08'0 0.0
2017-Sep-09 18:27N 33°40' W 118°08'0 0.1
2017-Sep-09 18:00N 33°40' W 118°08'0 0.1
2017-Sep-09 17:30N 33°40' W 118°08'0 0.0
2017-Sep-09 17:00N 33°40' W 118°08'0 0.0
2017-Sep-09 16:30N 33°40' W 118°08'0 0.0
2017-Sep-09 16:00N 33°40' W 118°08'0 0.0
2017-Sep-09 15:30N 33°40' W 118°08'0 0.0
2017-Sep-09 15:00N 33°40' W 118°08'0 0.0
2017-Sep-09 14:30N 33°40' W 118°08'0 0.0
2017-Sep-09 13:57N 33°40' W 118°08'0 0.0
2017-Sep-09 13:15N 33°40' W 118°08'0 0.1
2017-Sep-09 12:57N 33°40' W 118°08'0 0.1
2017-Sep-09 12:27N 33°40' W 118°08'0 0.0
2017-Sep-09 11:45N 33°40' W 118°08'0 0.0
2017-Sep-09 11:30N 33°40' W 118°08'0 0.0
2017-Sep-09 11:00N 33°40' W 118°08'0 0.0
2017-Sep-09 10:30N 33°40' W 118°08'0 0.0
2017-Sep-09 10:00N 33°40' W 118°08'0 0.0
2017-Sep-09 09:30N 33°40' W 118°08'0 0.1
2017-Sep-09 09:00N 33°40' W 118°08'0 0.1
2017-Sep-09 08:27N 33°40' W 118°08'0 0.0
2017-Sep-09 07:57N 33°40' W 118°08'0 0.0
2017-Sep-09 07:27N 33°40' W 118°08'0 0.0
2017-Sep-09 07:00N 33°40' W 118°08'0 0.0
2017-Sep-09 06:30N 33°40' W 118°08'0 0.0
2017-Sep-09 06:00N 33°40' W 118°08'0 0.0
2017-Sep-09 05:30N 33°40' W 118°08'0 0.0
2017-Sep-09 05:00N 33°40' W 118°08'0 0.0
2017-Sep-09 04:30N 33°40' W 118°08'0 0.0
2017-Sep-09 04:00N 33°40' W 118°08'0 0.0
2017-Sep-09 03:30N 33°40' W 118°08'0 0.0
2017-Sep-09 03:00N 33°40' W 118°08'0 0.0
2017-Sep-09 02:30N 33°40' W 118°08'0 0.0
2017-Sep-09 02:00N 33°40' W 118°08'0 0.0
2017-Sep-09 01:30N 33°40' W 118°08'0 0.0
2017-Sep-09 01:00N 33°40' W 118°08'0 0.1
2017-Sep-09 00:30N 33°40' W 118°08'0 0.0
2017-Sep-09 00:00N 33°40' W 118°08'0 0.0
2017-Sep-08 23:30N 33°40' W 118°08'0 0.0
2017-Sep-08 23:00N 33°40' W 118°08'0 0.0
2017-Sep-08 22:30N 33°40' W 118°08'0 0.0
2017-Sep-08 22:00N 33°40' W 118°08'0 0.1
2017-Sep-08 21:30N 33°40' W 118°08'0 0.1
2017-Sep-08 21:00N 33°40' W 118°08'0 0.0
2017-Sep-08 20:30N 33°40' W 118°08'0 0.0
2017-Sep-08 20:00N 33°40' W 118°08'0 0.0
2017-Sep-08 19:30N 33°40' W 118°08'0 0.0
2017-Sep-08 19:00N 33°40' W 118°08'0 0.0
2017-Sep-08 18:30N 33°40' W 118°08'0 0.0
2017-Sep-08 18:00N 33°40' W 118°08'0 0.0
2017-Sep-08 17:30N 33°40' W 118°08'0 0.0
2017-Sep-08 16:57N 33°40' W 118°08'0 0.0
2017-Sep-08 16:27N 33°40' W 118°08'0 0.0
2017-Sep-08 16:00N 33°40' W 118°08'0 0.0
2017-Sep-08 15:30N 33°40' W 118°08'0 0.1
2017-Sep-08 15:00N 33°40' W 118°08'0 0.0
2017-Sep-08 14:30N 33°40' W 118°08'0 0.1
2017-Sep-08 14:00N 33°40' W 118°08'0 0.0
2017-Sep-08 13:30N 33°40' W 118°08'0 0.0
2017-Sep-08 12:54N 33°40' W 118°08'0 0.1
2017-Sep-08 12:30N 33°40' W 118°08'0 0.0
2017-Sep-08 12:00N 33°40' W 118°08'0 0.0
2017-Sep-08 11:30N 33°40' W 118°08'0 0.0
2017-Sep-08 11:00N 33°40' W 118°08'0 0.0
2017-Sep-08 10:30N 33°40' W 118°08'0 0.0
2017-Sep-08 10:00N 33°40' W 118°08'0 0.0
2017-Sep-08 09:30N 33°40' W 118°08'0 0.0
2017-Sep-08 09:00N 33°40' W 118°08'0 0.0
2017-Sep-08 08:30N 33°40' W 118°08'0 0.0
2017-Sep-08 08:00N 33°40' W 118°08'0 0.0
2017-Sep-08 07:30N 33°40' W 118°08'0 0.0
2017-Sep-08 06:54N 33°40' W 118°08'0 0.0
2017-Sep-08 06:30N 33°40' W 118°08'0 0.0
2017-Sep-08 06:00N 33°40' W 118°08'0 0.0
2017-Sep-08 05:30N 33°40' W 118°08'0 0.0
2017-Sep-08 05:00N 33°40' W 118°08'0 0.0
2017-Sep-08 04:30N 33°40' W 118°08'0 0.0
2017-Sep-08 04:00N 33°40' W 118°08'0 0.0
2017-Sep-08 03:30N 33°40' W 118°08'0 0.0
2017-Sep-08 03:00N 33°40' W 118°08'0 0.0
2017-Sep-08 02:30N 33°40' W 118°08'0 0.0
2017-Sep-08 02:00N 33°40' W 118°08'0 0.0
2017-Sep-08 01:30N 33°40' W 118°08'0 0.0
2017-Sep-08 01:00N 33°40' W 118°08'0 0.0
2017-Sep-08 00:30N 33°40' W 118°08'0 0.0
2017-Sep-08 00:00N 33°40' W 118°08'0 0.0
2017-Sep-07 23:30N 33°40' W 118°08'0 0.0
2017-Sep-07 23:00N 33°40' W 118°08'0 0.0
2017-Sep-07 22:30N 33°40' W 118°08'0 0.0
2017-Sep-07 22:00N 33°40' W 118°08'0 0.0
2017-Sep-07 21:30N 33°40' W 118°08'0 0.0
2017-Sep-07 21:00N 33°40' W 118°08'0 0.0
2017-Sep-07 20:30N 33°40' W 118°08'0 0.0
2017-Sep-07 20:00N 33°40' W 118°08'0 0.0
2017-Sep-07 19:30N 33°40' W 118°08'0 0.0
2017-Sep-07 19:00N 33°40' W 118°08'0 0.1
2017-Sep-07 18:30N 33°40' W 118°08'0 0.0
2017-Sep-07 18:00N 33°40' W 118°08'0 0.1
2017-Sep-07 17:27N 33°40' W 118°08'0 0.1
2017-Sep-07 17:00N 33°40' W 118°08'0 0.0
2017-Sep-07 16:30N 33°40' W 118°08'0 0.0
2017-Sep-07 15:54N 33°40' W 118°08'0 0.2
2017-Sep-07 15:30N 33°40' W 118°08'0 0.3
2017-Sep-07 15:00N 33°40' W 118°08'2 3.6
2017-Sep-07 14:30N 33°39' W 118°09'4 7.5
2017-Sep-07 14:00N 33°36' W 118°13'611.1
2017-Sep-07 13:30N 33°36' W 118°20'611.6
2017-Sep-07 13:00N 33°36' W 118°26'611.8
2017-Sep-07 12:30N 33°36' W 118°34'611.4
2017-Sep-07 12:01N 33°36' W 118°40'611.4
2017-Sep-07 11:30N 33°37' W 118°47'611.6
2017-Sep-07 11:00N 33°37' W 118°54'611.9
2017-Sep-07 10:30N 33°38' W 119°01'611.8
2017-Sep-07 10:00N 33°39' W 119°08'611.6
2017-Sep-07 09:30N 33°41' W 119°14'612.4
2017-Sep-07 09:01N 33°45' W 119°20'612.1
2017-Sep-07 08:30N 33°48' W 119°27'611.4
2017-Sep-07 08:00N 33°49' W 119°33'611.9
2017-Sep-07 07:30N 33°48' W 119°40'611.5
2017-Sep-07 07:00N 33°47' W 119°47'611.5
2017-Sep-07 06:30N 33°46' W 119°54'611.3
2017-Sep-07 06:00N 33°45' W 120°01'611.4
2017-Sep-07 05:30N 33°44' W 120°08'612.2
2017-Sep-07 05:00N 33°45' W 120°15'612.3
2017-Sep-07 04:30N 33°46' W 120°22'612.2
2017-Sep-07 04:00N 33°47' W 120°29'612.6
2017-Sep-07 03:30N 33°48' W 120°37'612.7
2017-Sep-07 03:00N 33°49' W 120°44'712.6
2017-Sep-07 02:26N 33°50' W 120°53'612.7
2017-Sep-07 01:59N 33°51' W 120°60'612.5
2017-Sep-07 01:30N 33°52' W 121°07'612.3
2017-Sep-07 01:00N 33°53' W 121°14'610.5
2017-Sep-07 00:28N 33°54' W 121°21'2 4.6
2017-Sep-07 00:00N 33°55' W 121°23'3 5.3
2017-Sep-06 23:30N 33°55' W 121°26'510.2
2017-Sep-06 22:59N 33°56' W 121°33'611.9
2017-Sep-06 22:29N 33°57' W 121°40'611.9
2017-Sep-06 21:59N 33°58' W 121°47'612.0
2017-Sep-06 21:30N 33°59' W 121°54'611.8
2017-Sep-06 21:00N 33°60' W 122°01'612.4
2017-Sep-06 20:30N 34°01' W 122°08'2512.9
2017-Sep-06 18:36N 34°05' W 122°38'513.0
2017-Sep-06 18:12N 34°05' W 122°44'212.8
2017-Sep-06 18:00N 34°06' W 122°47'713.2
2017-Sep-06 17:29N 34°07' W 122°55'613.1
2017-Sep-06 17:00N 34°08' W 123°02'1512.9
2017-Sep-06 15:51N 34°11' W 123°20'412.7
2017-Sep-06 15:30N 34°11' W 123°25'612.7
2017-Sep-06 15:00N 34°12' W 123°33'4012.6
2017-Sep-06 11:47N 34°19' W 124°21'2012.4
2017-Sep-06 10:11N 34°22' W 124°45'  

Dump ship's entire track history